sensor_id;sensor_type;location;lat;lon;timestamp;P1;durP1;ratioP1;P2;durP2;ratioP2
22780;SDS011;11557;50.884;4.322;2022-10-16T00:00:35;0.93;;;0.75;;
22780;SDS011;11557;50.884;4.322;2022-10-16T00:03:03;2.58;;;1.02;;
22780;SDS011;11557;50.884;4.322;2022-10-16T00:05:30;3.42;;;1.13;;
22780;SDS011;11557;50.884;4.322;2022-10-16T00:07:56;1.63;;;0.88;;
22780;SDS011;11557;50.884;4.322;2022-10-16T00:10:32;1.90;;;0.90;;
22780;SDS011;11557;50.884;4.322;2022-10-16T00:13:07;1.17;;;0.80;;
22780;SDS011;11557;50.884;4.322;2022-10-16T00:15:33;1.17;;;0.80;;
22780;SDS011;11557;50.884;4.322;2022-10-16T00:18:01;5.40;;;0.90;;
22780;SDS011;11557;50.884;4.322;2022-10-16T00:20:28;2.60;;;0.90;;
22780;SDS011;11557;50.884;4.322;2022-10-16T00:22:56;2.35;;;1.10;;
22780;SDS011;11557;50.884;4.322;2022-10-16T00:25:22;2.65;;;1.20;;
22780;SDS011;11557;50.884;4.322;2022-10-16T00:27:48;2.58;;;1.20;;
22780;SDS011;11557;50.884;4.322;2022-10-16T00:30:14;4.47;;;0.98;;
22780;SDS011;11557;50.884;4.322;2022-10-16T00:32:40;1.48;;;0.98;;
22780;SDS011;11557;50.884;4.322;2022-10-16T00:35:05;2.20;;;1.00;;
22780;SDS011;11557;50.884;4.322;2022-10-16T00:37:31;2.20;;;1.00;;
22780;SDS011;11557;50.884;4.322;2022-10-16T00:39:57;1.83;;;1.00;;
22780;SDS011;11557;50.884;4.322;2022-10-16T00:42:23;5.57;;;1.23;;
22780;SDS011;11557;50.884;4.322;2022-10-16T00:44:56;2.38;;;0.90;;
22780;SDS011;11557;50.884;4.322;2022-10-16T00:47:24;2.28;;;0.98;;
22780;SDS011;11557;50.884;4.322;2022-10-16T00:49:56;3.97;;;1.02;;
22780;SDS011;11557;50.884;4.322;2022-10-16T00:52:26;4.88;;;1.75;;
22780;SDS011;11557;50.884;4.322;2022-10-16T00:54:52;1.55;;;0.88;;
22780;SDS011;11557;50.884;4.322;2022-10-16T00:57:19;3.65;;;1.30;;
22780;SDS011;11557;50.884;4.322;2022-10-16T00:59:45;2.70;;;1.50;;
22780;SDS011;11557;50.884;4.322;2022-10-16T01:02:12;2.63;;;1.63;;
22780;SDS011;11557;50.884;4.322;2022-10-16T01:04:40;3.70;;;1.10;;
22780;SDS011;11557;50.884;4.322;2022-10-16T01:07:30;1.77;;;1.30;;
22780;SDS011;11557;50.884;4.322;2022-10-16T01:12:40;2.55;;;1.35;;
22780;SDS011;11557;50.884;4.322;2022-10-16T01:15:11;4.25;;;1.50;;
22780;SDS011;11557;50.884;4.322;2022-10-16T01:17:50;3.78;;;1.20;;
22780;SDS011;11557;50.884;4.322;2022-10-16T01:20:30;2.15;;;1.30;;
22780;SDS011;11557;50.884;4.322;2022-10-16T01:26:20;2.22;;;1.45;;
22780;SDS011;11557;50.884;4.322;2022-10-16T01:31:33;3.17;;;2.50;;
22780;SDS011;11557;50.884;4.322;2022-10-16T01:34:05;3.05;;;1.98;;
22780;SDS011;11557;50.884;4.322;2022-10-16T01:36:56;5.00;;;1.70;;
22780;SDS011;11557;50.884;4.322;2022-10-16T01:39:25;1.60;;;1.40;;
22780;SDS011;11557;50.884;4.322;2022-10-16T01:41:55;3.97;;;1.40;;
22780;SDS011;11557;50.884;4.322;2022-10-16T01:44:29;3.50;;;1.70;;
22780;SDS011;11557;50.884;4.322;2022-10-16T01:46:57;2.10;;;1.50;;
22780;SDS011;11557;50.884;4.322;2022-10-16T01:49:25;4.38;;;1.50;;
22780;SDS011;11557;50.884;4.322;2022-10-16T01:51:55;2.08;;;1.30;;
22780;SDS011;11557;50.884;4.322;2022-10-16T01:54:25;3.72;;;1.60;;
22780;SDS011;11557;50.884;4.322;2022-10-16T01:56:54;3.92;;;2.20;;
22780;SDS011;11557;50.884;4.322;2022-10-16T01:59:21;5.15;;;2.25;;
22780;SDS011;11557;50.884;4.322;2022-10-16T02:01:58;4.20;;;1.73;;
22780;SDS011;11557;50.884;4.322;2022-10-16T02:04:28;3.10;;;1.60;;
22780;SDS011;11557;50.884;4.322;2022-10-16T02:06:57;3.28;;;1.40;;
22780;SDS011;11557;50.884;4.322;2022-10-16T02:09:23;6.32;;;2.80;;
22780;SDS011;11557;50.884;4.322;2022-10-16T02:11:50;3.58;;;2.10;;
22780;SDS011;11557;50.884;4.322;2022-10-16T02:14:19;2.08;;;1.88;;
22780;SDS011;11557;50.884;4.322;2022-10-16T02:16:47;2.65;;;1.88;;
22780;SDS011;11557;50.884;4.322;2022-10-16T02:19:13;5.05;;;1.80;;
22780;SDS011;11557;50.884;4.322;2022-10-16T02:24:15;2.50;;;1.58;;
22780;SDS011;11557;50.884;4.322;2022-10-16T02:27:03;2.40;;;1.63;;
22780;SDS011;11557;50.884;4.322;2022-10-16T02:29:52;3.60;;;1.42;;
22780;SDS011;11557;50.884;4.322;2022-10-16T02:32:24;3.67;;;1.80;;
22780;SDS011;11557;50.884;4.322;2022-10-16T02:34:56;2.38;;;1.60;;
22780;SDS011;11557;50.884;4.322;2022-10-16T02:37:23;5.68;;;1.52;;
22780;SDS011;11557;50.884;4.322;2022-10-16T02:39:50;2.50;;;1.35;;
22780;SDS011;11557;50.884;4.322;2022-10-16T02:42:17;2.83;;;1.88;;
22780;SDS011;11557;50.884;4.322;2022-10-16T02:44:43;5.05;;;1.80;;
22780;SDS011;11557;50.884;4.322;2022-10-16T02:47:09;2.10;;;1.42;;
22780;SDS011;11557;50.884;4.322;2022-10-16T02:49:35;4.10;;;1.80;;
22780;SDS011;11557;50.884;4.322;2022-10-16T02:52:00;3.35;;;1.80;;
22780;SDS011;11557;50.884;4.322;2022-10-16T02:54:26;3.35;;;1.83;;
22780;SDS011;11557;50.884;4.322;2022-10-16T02:56:52;2.50;;;1.80;;
22780;SDS011;11557;50.884;4.322;2022-10-16T02:59:17;4.20;;;1.80;;
22780;SDS011;11557;50.884;4.322;2022-10-16T03:01:43;3.30;;;1.80;;
22780;SDS011;11557;50.884;4.322;2022-10-16T03:04:09;5.20;;;1.95;;
22780;SDS011;11557;50.884;4.322;2022-10-16T03:06:34;5.90;;;1.65;;
22780;SDS011;11557;50.884;4.322;2022-10-16T03:09:00;6.03;;;1.90;;
22780;SDS011;11557;50.884;4.322;2022-10-16T03:11:27;3.75;;;2.03;;
22780;SDS011;11557;50.884;4.322;2022-10-16T03:13:53;2.05;;;1.60;;
22780;SDS011;11557;50.884;4.322;2022-10-16T03:16:19;3.53;;;2.00;;
22780;SDS011;11557;50.884;4.322;2022-10-16T03:18:47;4.30;;;1.65;;
22780;SDS011;11557;50.884;4.322;2022-10-16T03:21:14;5.47;;;1.85;;
22780;SDS011;11557;50.884;4.322;2022-10-16T03:23:40;3.47;;;1.77;;
22780;SDS011;11557;50.884;4.322;2022-10-16T03:26:05;4.30;;;1.80;;
22780;SDS011;11557;50.884;4.322;2022-10-16T03:28:31;4.97;;;1.85;;
22780;SDS011;11557;50.884;4.322;2022-10-16T03:30:57;4.43;;;1.83;;
22780;SDS011;11557;50.884;4.322;2022-10-16T03:33:23;5.38;;;1.88;;
22780;SDS011;11557;50.884;4.322;2022-10-16T03:35:52;5.13;;;2.10;;
22780;SDS011;11557;50.884;4.322;2022-10-16T03:38:19;3.92;;;1.90;;
22780;SDS011;11557;50.884;4.322;2022-10-16T03:40:45;4.15;;;2.15;;
22780;SDS011;11557;50.884;4.322;2022-10-16T03:43:11;5.35;;;2.30;;
22780;SDS011;11557;50.884;4.322;2022-10-16T03:45:37;3.33;;;2.00;;
22780;SDS011;11557;50.884;4.322;2022-10-16T03:48:03;5.20;;;1.98;;
22780;SDS011;11557;50.884;4.322;2022-10-16T03:50:29;3.47;;;1.65;;
22780;SDS011;11557;50.884;4.322;2022-10-16T03:52:54;5.72;;;2.13;;
22780;SDS011;11557;50.884;4.322;2022-10-16T03:55:20;3.42;;;2.25;;
22780;SDS011;11557;50.884;4.322;2022-10-16T03:57:46;5.40;;;1.83;;
22780;SDS011;11557;50.884;4.322;2022-10-16T04:00:12;3.25;;;2.08;;
22780;SDS011;11557;50.884;4.322;2022-10-16T04:02:38;4.43;;;2.15;;
22780;SDS011;11557;50.884;4.322;2022-10-16T04:05:04;5.32;;;1.90;;
22780;SDS011;11557;50.884;4.322;2022-10-16T04:07:30;3.00;;;1.90;;
22780;SDS011;11557;50.884;4.322;2022-10-16T04:09:56;5.38;;;2.20;;
22780;SDS011;11557;50.884;4.322;2022-10-16T04:12:24;3.95;;;2.13;;
22780;SDS011;11557;50.884;4.322;2022-10-16T04:14:50;4.40;;;2.10;;
22780;SDS011;11557;50.884;4.322;2022-10-16T04:17:16;3.95;;;2.05;;
22780;SDS011;11557;50.884;4.322;2022-10-16T04:19:41;5.60;;;2.35;;
22780;SDS011;11557;50.884;4.322;2022-10-16T04:22:07;6.13;;;2.35;;
22780;SDS011;11557;50.884;4.322;2022-10-16T04:24:33;4.80;;;2.15;;
22780;SDS011;11557;50.884;4.322;2022-10-16T04:26:59;4.38;;;2.13;;
22780;SDS011;11557;50.884;4.322;2022-10-16T04:29:25;5.32;;;2.20;;
22780;SDS011;11557;50.884;4.322;2022-10-16T04:31:50;3.40;;;2.17;;
22780;SDS011;11557;50.884;4.322;2022-10-16T04:34:16;6.53;;;2.30;;
22780;SDS011;11557;50.884;4.322;2022-10-16T04:36:42;7.45;;;2.10;;
22780;SDS011;11557;50.884;4.322;2022-10-16T04:39:08;3.80;;;2.10;;
22780;SDS011;11557;50.884;4.322;2022-10-16T04:41:33;5.20;;;2.38;;
22780;SDS011;11557;50.884;4.322;2022-10-16T04:43:59;6.78;;;1.77;;
22780;SDS011;11557;50.884;4.322;2022-10-16T04:46:24;4.45;;;2.03;;
22780;SDS011;11557;50.884;4.322;2022-10-16T04:48:50;5.30;;;2.13;;
22780;SDS011;11557;50.884;4.322;2022-10-16T04:51:16;6.80;;;1.80;;
22780;SDS011;11557;50.884;4.322;2022-10-16T04:53:43;5.82;;;2.17;;
22780;SDS011;11557;50.884;4.322;2022-10-16T04:56:09;5.97;;;2.22;;
22780;SDS011;11557;50.884;4.322;2022-10-16T04:58:34;2.90;;;1.83;;
22780;SDS011;11557;50.884;4.322;2022-10-16T05:01:00;5.97;;;2.10;;
22780;SDS011;11557;50.884;4.322;2022-10-16T05:03:26;4.95;;;2.30;;
22780;SDS011;11557;50.884;4.322;2022-10-16T05:05:51;3.72;;;2.00;;
22780;SDS011;11557;50.884;4.322;2022-10-16T05:08:18;3.78;;;2.20;;
22780;SDS011;11557;50.884;4.322;2022-10-16T05:10:44;7.93;;;2.17;;
22780;SDS011;11557;50.884;4.322;2022-10-16T05:13:10;5.78;;;2.30;;
22780;SDS011;11557;50.884;4.322;2022-10-16T05:15:36;7.47;;;2.60;;
22780;SDS011;11557;50.884;4.322;2022-10-16T05:18:02;3.25;;;2.17;;
22780;SDS011;11557;50.884;4.322;2022-10-16T05:20:28;7.10;;;2.65;;
22780;SDS011;11557;50.884;4.322;2022-10-16T05:22:54;7.18;;;2.58;;
22780;SDS011;11557;50.884;4.322;2022-10-16T05:25:19;6.88;;;2.78;;
22780;SDS011;11557;50.884;4.322;2022-10-16T05:27:48;8.48;;;3.13;;
22780;SDS011;11557;50.884;4.322;2022-10-16T05:30:15;4.55;;;2.33;;
22780;SDS011;11557;50.884;4.322;2022-10-16T05:32:42;5.25;;;2.55;;
22780;SDS011;11557;50.884;4.322;2022-10-16T05:35:12;7.25;;;2.88;;
22780;SDS011;11557;50.884;4.322;2022-10-16T05:37:38;6.32;;;2.67;;
22780;SDS011;11557;50.884;4.322;2022-10-16T05:40:04;10.35;;;3.05;;
22780;SDS011;11557;50.884;4.322;2022-10-16T05:42:30;4.75;;;3.17;;
22780;SDS011;11557;50.884;4.322;2022-10-16T05:44:56;4.05;;;2.92;;
22780;SDS011;11557;50.884;4.322;2022-10-16T05:47:21;4.10;;;2.95;;
22780;SDS011;11557;50.884;4.322;2022-10-16T05:49:47;7.32;;;3.10;;
22780;SDS011;11557;50.884;4.322;2022-10-16T05:52:13;5.78;;;2.83;;
22780;SDS011;11557;50.884;4.322;2022-10-16T05:54:39;7.95;;;3.08;;
22780;SDS011;11557;50.884;4.322;2022-10-16T05:57:04;4.40;;;2.90;;
22780;SDS011;11557;50.884;4.322;2022-10-16T05:59:31;7.20;;;3.08;;
22780;SDS011;11557;50.884;4.322;2022-10-16T06:01:57;5.93;;;3.20;;
22780;SDS011;11557;50.884;4.322;2022-10-16T06:04:22;6.85;;;2.88;;
22780;SDS011;11557;50.884;4.322;2022-10-16T06:06:48;8.18;;;2.65;;
22780;SDS011;11557;50.884;4.322;2022-10-16T06:09:14;9.20;;;3.50;;
22780;SDS011;11557;50.884;4.322;2022-10-16T06:11:40;12.63;;;3.55;;
22780;SDS011;11557;50.884;4.322;2022-10-16T06:14:06;7.75;;;3.22;;
22780;SDS011;11557;50.884;4.322;2022-10-16T06:16:34;7.82;;;2.85;;
22780;SDS011;11557;50.884;4.322;2022-10-16T06:19:01;8.07;;;3.15;;
22780;SDS011;11557;50.884;4.322;2022-10-16T06:21:31;7.07;;;2.83;;
22780;SDS011;11557;50.884;4.322;2022-10-16T06:23:57;8.18;;;3.42;;
22780;SDS011;11557;50.884;4.322;2022-10-16T06:26:25;5.90;;;3.60;;
22780;SDS011;11557;50.884;4.322;2022-10-16T06:28:53;7.45;;;3.13;;
22780;SDS011;11557;50.884;4.322;2022-10-16T06:31:24;7.82;;;2.90;;
22780;SDS011;11557;50.884;4.322;2022-10-16T06:33:52;4.45;;;2.70;;
22780;SDS011;11557;50.884;4.322;2022-10-16T06:36:18;6.55;;;3.00;;
22780;SDS011;11557;50.884;4.322;2022-10-16T06:38:44;6.80;;;2.90;;
22780;SDS011;11557;50.884;4.322;2022-10-16T06:41:11;7.82;;;3.00;;
22780;SDS011;11557;50.884;4.322;2022-10-16T06:43:38;5.22;;;2.75;;
22780;SDS011;11557;50.884;4.322;2022-10-16T06:46:05;5.18;;;3.00;;
22780;SDS011;11557;50.884;4.322;2022-10-16T06:48:33;4.80;;;2.65;;
22780;SDS011;11557;50.884;4.322;2022-10-16T06:51:12;9.65;;;2.85;;
22780;SDS011;11557;50.884;4.322;2022-10-16T06:53:41;10.00;;;3.33;;
22780;SDS011;11557;50.884;4.322;2022-10-16T06:56:11;8.38;;;2.60;;
22780;SDS011;11557;50.884;4.322;2022-10-16T06:58:39;5.28;;;2.63;;
22780;SDS011;11557;50.884;4.322;2022-10-16T07:01:06;6.45;;;2.80;;
22780;SDS011;11557;50.884;4.322;2022-10-16T07:03:32;5.55;;;2.90;;
22780;SDS011;11557;50.884;4.322;2022-10-16T07:06:01;4.15;;;2.70;;
22780;SDS011;11557;50.884;4.322;2022-10-16T07:08:30;5.50;;;2.70;;
22780;SDS011;11557;50.884;4.322;2022-10-16T07:11:03;6.50;;;2.50;;
22780;SDS011;11557;50.884;4.322;2022-10-16T07:13:35;6.07;;;2.95;;
22780;SDS011;11557;50.884;4.322;2022-10-16T07:16:05;8.75;;;3.70;;
22780;SDS011;11557;50.884;4.322;2022-10-16T07:18:33;6.75;;;3.33;;
22780;SDS011;11557;50.884;4.322;2022-10-16T07:23:59;5.32;;;2.50;;
22780;SDS011;11557;50.884;4.322;2022-10-16T07:26:27;5.45;;;2.35;;
22780;SDS011;11557;50.884;4.322;2022-10-16T07:28:55;4.40;;;2.58;;
22780;SDS011;11557;50.884;4.322;2022-10-16T07:31:22;6.50;;;2.70;;
22780;SDS011;11557;50.884;4.322;2022-10-16T07:33:51;3.80;;;2.17;;
22780;SDS011;11557;50.884;4.322;2022-10-16T07:36:17;10.70;;;2.83;;
22780;SDS011;11557;50.884;4.322;2022-10-16T07:38:45;7.47;;;2.58;;
22780;SDS011;11557;50.884;4.322;2022-10-16T07:41:11;4.80;;;2.53;;
22780;SDS011;11557;50.884;4.322;2022-10-16T07:43:45;6.32;;;2.78;;
22780;SDS011;11557;50.884;4.322;2022-10-16T07:46:12;5.07;;;2.30;;
22780;SDS011;11557;50.884;4.322;2022-10-16T07:48:39;5.53;;;2.88;;
22780;SDS011;11557;50.884;4.322;2022-10-16T07:51:05;3.55;;;2.30;;
22780;SDS011;11557;50.884;4.322;2022-10-16T07:53:32;6.18;;;2.75;;
22780;SDS011;11557;50.884;4.322;2022-10-16T07:55:59;6.97;;;2.42;;
22780;SDS011;11557;50.884;4.322;2022-10-16T07:58:29;6.20;;;2.53;;
22780;SDS011;11557;50.884;4.322;2022-10-16T08:00:56;6.65;;;2.10;;
22780;SDS011;11557;50.884;4.322;2022-10-16T08:03:23;6.20;;;2.80;;
22780;SDS011;11557;50.884;4.322;2022-10-16T08:05:49;4.90;;;2.58;;
22780;SDS011;11557;50.884;4.322;2022-10-16T08:08:15;5.68;;;2.50;;
22780;SDS011;11557;50.884;4.322;2022-10-16T08:10:42;6.18;;;2.70;;
22780;SDS011;11557;50.884;4.322;2022-10-16T08:13:07;7.90;;;3.03;;
22780;SDS011;11557;50.884;4.322;2022-10-16T08:15:33;4.30;;;2.17;;
22780;SDS011;11557;50.884;4.322;2022-10-16T08:18:02;7.88;;;3.13;;
22780;SDS011;11557;50.884;4.322;2022-10-16T08:20:30;8.50;;;2.47;;
22780;SDS011;11557;50.884;4.322;2022-10-16T08:22:56;6.85;;;2.42;;
22780;SDS011;11557;50.884;4.322;2022-10-16T08:25:22;4.25;;;2.38;;
22780;SDS011;11557;50.884;4.322;2022-10-16T08:27:49;7.63;;;2.60;;
22780;SDS011;11557;50.884;4.322;2022-10-16T08:30:15;7.32;;;2.10;;
22780;SDS011;11557;50.884;4.322;2022-10-16T08:32:42;10.07;;;2.60;;
22780;SDS011;11557;50.884;4.322;2022-10-16T08:35:08;7.50;;;2.25;;
22780;SDS011;11557;50.884;4.322;2022-10-16T08:37:35;7.93;;;2.67;;
22780;SDS011;11557;50.884;4.322;2022-10-16T08:40:01;5.00;;;2.13;;
22780;SDS011;11557;50.884;4.322;2022-10-16T08:42:30;7.93;;;1.80;;
22780;SDS011;11557;50.884;4.322;2022-10-16T08:50:43;7.72;;;2.03;;
22780;SDS011;11557;50.884;4.322;2022-10-16T08:53:18;3.65;;;1.52;;
22780;SDS011;11557;50.884;4.322;2022-10-16T08:55:50;5.40;;;1.55;;
22780;SDS011;11557;50.884;4.322;2022-10-16T08:58:21;3.60;;;1.30;;
22780;SDS011;11557;50.884;4.322;2022-10-16T09:00:53;12.35;;;1.42;;
22780;SDS011;11557;50.884;4.322;2022-10-16T09:25:28;4.75;;;1.23;;
22780;SDS011;11557;50.884;4.322;2022-10-16T09:27:55;4.30;;;0.98;;
22780;SDS011;11557;50.884;4.322;2022-10-16T09:30:21;4.57;;;1.40;;
22780;SDS011;11557;50.884;4.322;2022-10-16T09:32:49;5.43;;;1.13;;
22780;SDS011;11557;50.884;4.322;2022-10-16T09:35:18;3.33;;;1.30;;
22780;SDS011;11557;50.884;4.322;2022-10-16T09:37:47;6.55;;;1.27;;
22780;SDS011;11557;50.884;4.322;2022-10-16T09:43:17;5.70;;;1.17;;
22780;SDS011;11557;50.884;4.322;2022-10-16T09:45:57;3.90;;;1.05;;
22780;SDS011;11557;50.884;4.322;2022-10-16T09:48:47;3.90;;;1.02;;
22780;SDS011;11557;50.884;4.322;2022-10-16T09:51:24;6.05;;;1.17;;
22780;SDS011;11557;50.884;4.322;2022-10-16T09:56:28;5.00;;;1.20;;
22780;SDS011;11557;50.884;4.322;2022-10-16T09:58:59;6.00;;;1.10;;
22780;SDS011;11557;50.884;4.322;2022-10-16T10:01:32;7.63;;;1.13;;
22780;SDS011;11557;50.884;4.322;2022-10-16T10:04:03;3.58;;;0.85;;
22780;SDS011;11557;50.884;4.322;2022-10-16T10:07:14;3.17;;;0.95;;
22780;SDS011;11557;50.884;4.322;2022-10-16T10:09:27;4.75;;;1.30;;
22780;SDS011;11557;50.884;4.322;2022-10-16T10:11:58;4.65;;;1.65;;
22780;SDS011;11557;50.884;4.322;2022-10-16T10:15:11;6.10;;;1.20;;
22780;SDS011;11557;50.884;4.322;2022-10-16T10:17:13;3.45;;;0.90;;
22780;SDS011;11557;50.884;4.322;2022-10-16T10:24:55;4.07;;;1.60;;
22780;SDS011;11557;50.884;4.322;2022-10-16T10:27:21;3.40;;;1.08;;
22780;SDS011;11557;50.884;4.322;2022-10-16T10:30:01;3.90;;;1.10;;
22780;SDS011;11557;50.884;4.322;2022-10-16T10:40:56;4.40;;;1.05;;
22780;SDS011;11557;50.884;4.322;2022-10-16T10:43:28;3.92;;;1.60;;
22780;SDS011;11557;50.884;4.322;2022-10-16T10:46:04;5.32;;;1.30;;
22780;SDS011;11557;50.884;4.322;2022-10-16T10:54:51;6.40;;;1.30;;
22780;SDS011;11557;50.884;4.322;2022-10-16T10:57:45;6.93;;;1.20;;
22780;SDS011;11557;50.884;4.322;2022-10-16T11:05:58;5.30;;;2.15;;
22780;SDS011;11557;50.884;4.322;2022-10-16T11:08:32;6.15;;;1.10;;
22780;SDS011;11557;50.884;4.322;2022-10-16T11:11:10;3.28;;;0.98;;
22780;SDS011;11557;50.884;4.322;2022-10-16T11:16:34;9.05;;;1.35;;
22780;SDS011;11557;50.884;4.322;2022-10-16T11:28:03;6.10;;;1.45;;
22780;SDS011;11557;50.884;4.322;2022-10-16T11:30:51;5.75;;;1.48;;
22780;SDS011;11557;50.884;4.322;2022-10-16T11:34:06;1.73;;;0.70;;
22780;SDS011;11557;50.884;4.322;2022-10-16T11:39:18;4.57;;;1.05;;
22780;SDS011;11557;50.884;4.322;2022-10-16T11:41:56;3.00;;;1.05;;
22780;SDS011;11557;50.884;4.322;2022-10-16T11:50:31;5.40;;;1.20;;
22780;SDS011;11557;50.884;4.322;2022-10-16T11:55:39;3.85;;;1.05;;
22780;SDS011;11557;50.884;4.322;2022-10-16T11:58:21;5.32;;;1.20;;
22780;SDS011;11557;50.884;4.322;2022-10-16T12:01:12;6.10;;;1.20;;
22780;SDS011;11557;50.884;4.322;2022-10-16T12:04:05;6.65;;;1.27;;
22780;SDS011;11557;50.884;4.322;2022-10-16T12:09:39;3.63;;;0.90;;
22780;SDS011;11557;50.884;4.322;2022-10-16T12:15:03;2.55;;;0.85;;
22780;SDS011;11557;50.884;4.322;2022-10-16T12:17:49;5.95;;;0.98;;
22780;SDS011;11557;50.884;4.322;2022-10-16T12:20:20;3.58;;;1.00;;
22780;SDS011;11557;50.884;4.322;2022-10-16T12:22:58;4.95;;;1.42;;
22780;SDS011;11557;50.884;4.322;2022-10-16T12:28:20;4.65;;;1.02;;
22780;SDS011;11557;50.884;4.322;2022-10-16T12:30:54;8.57;;;1.48;;
22780;SDS011;11557;50.884;4.322;2022-10-16T12:33:26;3.63;;;1.00;;
22780;SDS011;11557;50.884;4.322;2022-10-16T12:35:54;3.85;;;0.90;;
22780;SDS011;11557;50.884;4.322;2022-10-16T12:38:21;2.42;;;0.90;;
22780;SDS011;11557;50.884;4.322;2022-10-16T12:40:58;4.72;;;1.10;;
22780;SDS011;11557;50.884;4.322;2022-10-16T12:48:40;7.13;;;1.20;;
22780;SDS011;11557;50.884;4.322;2022-10-16T12:51:25;5.68;;;1.20;;
22780;SDS011;11557;50.884;4.322;2022-10-16T12:54:13;3.80;;;1.10;;
22780;SDS011;11557;50.884;4.322;2022-10-16T13:05:46;2.88;;;0.95;;
22780;SDS011;11557;50.884;4.322;2022-10-16T13:16:54;3.25;;;0.88;;
22780;SDS011;11557;50.884;4.322;2022-10-16T13:19:46;2.38;;;0.98;;
22780;SDS011;11557;50.884;4.322;2022-10-16T13:22:38;5.15;;;1.20;;
22780;SDS011;11557;50.884;4.322;2022-10-16T13:25:43;7.93;;;2.90;;
22780;SDS011;11557;50.884;4.322;2022-10-16T13:30:53;1.60;;;0.98;;
22780;SDS011;11557;50.884;4.322;2022-10-16T13:33:23;6.57;;;1.30;;
22780;SDS011;11557;50.884;4.322;2022-10-16T13:35:57;4.30;;;1.42;;
22780;SDS011;11557;50.884;4.322;2022-10-16T13:38:24;2.83;;;1.10;;
22780;SDS011;11557;50.884;4.322;2022-10-16T13:40:59;2.35;;;1.02;;
22780;SDS011;11557;50.884;4.322;2022-10-16T13:46:05;5.38;;;1.42;;
22780;SDS011;11557;50.884;4.322;2022-10-16T13:48:33;4.53;;;1.23;;
22780;SDS011;11557;50.884;4.322;2022-10-16T13:53:38;8.43;;;1.45;;
22780;SDS011;11557;50.884;4.322;2022-10-16T13:56:06;3.35;;;1.10;;
22780;SDS011;11557;50.884;4.322;2022-10-16T13:58:35;5.22;;;1.33;;
22780;SDS011;11557;50.884;4.322;2022-10-16T14:01:02;4.43;;;1.25;;
22780;SDS011;11557;50.884;4.322;2022-10-16T14:03:43;7.07;;;1.98;;
22780;SDS011;11557;50.884;4.322;2022-10-16T14:06:27;5.13;;;1.42;;
22780;SDS011;11557;50.884;4.322;2022-10-16T14:11:29;5.30;;;1.13;;
22780;SDS011;11557;50.884;4.322;2022-10-16T14:13:55;4.43;;;1.42;;
22780;SDS011;11557;50.884;4.322;2022-10-16T14:16:22;11.05;;;4.03;;
22780;SDS011;11557;50.884;4.322;2022-10-16T14:18:58;4.53;;;1.80;;
22780;SDS011;11557;50.884;4.322;2022-10-16T14:21:27;4.53;;;1.63;;
22780;SDS011;11557;50.884;4.322;2022-10-16T14:23:53;3.63;;;1.40;;
22780;SDS011;11557;50.884;4.322;2022-10-16T14:26:22;7.55;;;1.15;;
22780;SDS011;11557;50.884;4.322;2022-10-16T14:29:00;5.03;;;1.30;;
22780;SDS011;11557;50.884;4.322;2022-10-16T14:31:40;4.18;;;1.60;;
22780;SDS011;11557;50.884;4.322;2022-10-16T14:34:52;2.35;;;1.38;;
22780;SDS011;11557;50.884;4.322;2022-10-16T14:36:55;3.35;;;1.00;;
22780;SDS011;11557;50.884;4.322;2022-10-16T14:39:23;3.15;;;1.00;;
22780;SDS011;11557;50.884;4.322;2022-10-16T14:41:51;7.40;;;1.05;;
22780;SDS011;11557;50.884;4.322;2022-10-16T14:44:21;4.50;;;0.90;;
22780;SDS011;11557;50.884;4.322;2022-10-16T14:46:52;5.93;;;1.02;;
22780;SDS011;11557;50.884;4.322;2022-10-16T14:49:18;4.63;;;1.30;;
22780;SDS011;11557;50.884;4.322;2022-10-16T14:51:45;6.18;;;1.50;;
22780;SDS011;11557;50.884;4.322;2022-10-16T14:54:12;3.47;;;1.27;;
22780;SDS011;11557;50.884;4.322;2022-10-16T14:56:52;2.28;;;1.13;;
22780;SDS011;11557;50.884;4.322;2022-10-16T14:59:32;3.10;;;1.33;;
22780;SDS011;11557;50.884;4.322;2022-10-16T15:02:01;10.10;;;1.40;;
22780;SDS011;11557;50.884;4.322;2022-10-16T15:04:50;4.00;;;1.17;;
22780;SDS011;11557;50.884;4.322;2022-10-16T15:07:16;5.03;;;1.30;;
22780;SDS011;11557;50.884;4.322;2022-10-16T15:09:41;5.38;;;1.10;;
22780;SDS011;11557;50.884;4.322;2022-10-16T15:12:07;4.75;;;1.20;;
22780;SDS011;11557;50.884;4.322;2022-10-16T15:14:33;6.35;;;1.52;;
22780;SDS011;11557;50.884;4.322;2022-10-16T15:16:59;7.28;;;1.73;;
22780;SDS011;11557;50.884;4.322;2022-10-16T15:19:25;3.00;;;1.23;;
22780;SDS011;11557;50.884;4.322;2022-10-16T15:21:51;3.63;;;1.60;;
22780;SDS011;11557;50.884;4.322;2022-10-16T15:24:17;5.63;;;1.63;;
22780;SDS011;11557;50.884;4.322;2022-10-16T15:26:43;6.78;;;1.58;;
22780;SDS011;11557;50.884;4.322;2022-10-16T15:29:11;4.20;;;1.58;;
22780;SDS011;11557;50.884;4.322;2022-10-16T15:31:37;4.82;;;1.63;;
22780;SDS011;11557;50.884;4.322;2022-10-16T15:34:03;4.47;;;1.38;;
22780;SDS011;11557;50.884;4.322;2022-10-16T15:36:34;6.07;;;1.90;;
22780;SDS011;11557;50.884;4.322;2022-10-16T15:39:06;6.03;;;1.70;;
22780;SDS011;11557;50.884;4.322;2022-10-16T15:41:42;3.97;;;1.25;;
22780;SDS011;11557;50.884;4.322;2022-10-16T15:44:09;4.20;;;1.90;;
22780;SDS011;11557;50.884;4.322;2022-10-16T15:46:35;8.23;;;4.70;;
22780;SDS011;11557;50.884;4.322;2022-10-16T15:49:02;14.48;;;6.43;;
22780;SDS011;11557;50.884;4.322;2022-10-16T15:51:28;13.45;;;7.78;;
22780;SDS011;11557;50.884;4.322;2022-10-16T15:53:57;14.02;;;6.95;;
22780;SDS011;11557;50.884;4.322;2022-10-16T15:56:24;12.00;;;5.78;;
22780;SDS011;11557;50.884;4.322;2022-10-16T15:58:51;15.30;;;7.88;;
22780;SDS011;11557;50.884;4.322;2022-10-16T16:01:18;13.77;;;7.30;;
22780;SDS011;11557;50.884;4.322;2022-10-16T16:03:44;12.05;;;5.03;;
22780;SDS011;11557;50.884;4.322;2022-10-16T16:06:10;6.05;;;3.30;;
22780;SDS011;11557;50.884;4.322;2022-10-16T16:08:37;8.88;;;3.10;;
22780;SDS011;11557;50.884;4.322;2022-10-16T16:11:05;5.35;;;2.78;;
22780;SDS011;11557;50.884;4.322;2022-10-16T16:13:35;6.15;;;2.65;;
22780;SDS011;11557;50.884;4.322;2022-10-16T16:16:05;6.65;;;2.60;;
22780;SDS011;11557;50.884;4.322;2022-10-16T16:18:32;16.92;;;4.05;;
22780;SDS011;11557;50.884;4.322;2022-10-16T16:20:58;11.38;;;3.85;;
22780;SDS011;11557;50.884;4.322;2022-10-16T16:23:23;4.70;;;2.42;;
22780;SDS011;11557;50.884;4.322;2022-10-16T16:26:02;8.48;;;2.75;;
22780;SDS011;11557;50.884;4.322;2022-10-16T16:28:32;4.25;;;2.67;;
22780;SDS011;11557;50.884;4.322;2022-10-16T16:30:58;5.85;;;2.80;;
22780;SDS011;11557;50.884;4.322;2022-10-16T16:33:24;7.72;;;2.72;;
22780;SDS011;11557;50.884;4.322;2022-10-16T16:35:50;6.13;;;2.83;;
22780;SDS011;11557;50.884;4.322;2022-10-16T16:38:15;8.32;;;2.72;;
22780;SDS011;11557;50.884;4.322;2022-10-16T16:40:41;6.32;;;2.75;;
22780;SDS011;11557;50.884;4.322;2022-10-16T16:43:06;8.75;;;3.08;;
22780;SDS011;11557;50.884;4.322;2022-10-16T16:45:35;6.78;;;3.10;;
22780;SDS011;11557;50.884;4.322;2022-10-16T16:48:01;8.10;;;2.72;;
22780;SDS011;11557;50.884;4.322;2022-10-16T16:50:26;7.68;;;2.67;;
22780;SDS011;11557;50.884;4.322;2022-10-16T16:52:52;7.95;;;2.78;;
22780;SDS011;11557;50.884;4.322;2022-10-16T16:55:17;4.20;;;2.33;;
22780;SDS011;11557;50.884;4.322;2022-10-16T16:57:43;5.57;;;3.05;;
22780;SDS011;11557;50.884;4.322;2022-10-16T17:00:09;8.65;;;2.42;;
22780;SDS011;11557;50.884;4.322;2022-10-16T17:02:34;7.70;;;2.33;;
22780;SDS011;11557;50.884;4.322;2022-10-16T17:05:00;6.95;;;2.60;;
22780;SDS011;11557;50.884;4.322;2022-10-16T17:07:26;12.27;;;4.20;;
22780;SDS011;11557;50.884;4.322;2022-10-16T17:09:55;13.57;;;4.88;;
22780;SDS011;11557;50.884;4.322;2022-10-16T17:12:21;11.48;;;4.43;;
22780;SDS011;11557;50.884;4.322;2022-10-16T17:14:46;11.48;;;4.13;;
22780;SDS011;11557;50.884;4.322;2022-10-16T17:17:12;13.15;;;4.00;;
22780;SDS011;11557;50.884;4.322;2022-10-16T17:19:37;8.82;;;3.97;;